sensor_id;sensor_type;location;lat;lon;timestamp;temperature;humidity
16160;DHT22;8185;57.818;15.224;2023-06-22T00:00:13;17.20;99.90
16160;DHT22;8185;57.818;15.224;2023-06-22T00:02:41;17.20;99.90
16160;DHT22;8185;57.818;15.224;2023-06-22T00:05:08;17.10;99.90
16160;DHT22;8185;57.818;15.224;2023-06-22T00:07:35;17.10;99.90
16160;DHT22;8185;57.818;15.224;2023-06-22T00:10:02;17.10;99.90
16160;DHT22;8185;57.818;15.224;2023-06-22T00:12:29;17.10;99.90
16160;DHT22;8185;57.818;15.224;2023-06-22T00:14:59;17.00;99.90
16160;DHT22;8185;57.818;15.224;2023-06-22T00:17:26;17.00;99.90
16160;DHT22;8185;57.818;15.224;2023-06-22T00:19:53;17.00;99.90
16160;DHT22;8185;57.818;15.224;2023-06-22T00:22:21;16.90;99.90
16160;DHT22;8185;57.818;15.224;2023-06-22T00:24:55;16.80;99.90
16160;DHT22;8185;57.818;15.224;2023-06-22T00:27:22;16.80;99.90
16160;DHT22;8185;57.818;15.224;2023-06-22T00:29:49;16.80;99.90
16160;DHT22;8185;57.818;15.224;2023-06-22T00:32:18;16.80;99.90
16160;DHT22;8185;57.818;15.224;2023-06-22T00:34:46;16.80;99.90
16160;DHT22;8185;57.818;15.224;2023-06-22T00:37:13;16.70;99.90
16160;DHT22;8185;57.818;15.224;2023-06-22T00:39:40;16.70;99.90
16160;DHT22;8185;57.818;15.224;2023-06-22T00:42:08;16.60;99.90
16160;DHT22;8185;57.818;15.224;2023-06-22T00:44:35;16.60;99.90
16160;DHT22;8185;57.818;15.224;2023-06-22T00:47:03;16.50;99.90
16160;DHT22;8185;57.818;15.224;2023-06-22T00:49:32;16.50;99.90
16160;DHT22;8185;57.818;15.224;2023-06-22T00:51:59;16.50;99.90
16160;DHT22;8185;57.818;15.224;2023-06-22T00:54:26;16.50;99.90
16160;DHT22;8185;57.818;15.224;2023-06-22T00:56:54;16.50;99.90
16160;DHT22;8185;57.818;15.224;2023-06-22T00:59:24;16.40;99.90
16160;DHT22;8185;57.818;15.224;2023-06-22T01:01:51;16.40;99.90
16160;DHT22;8185;57.818;15.224;2023-06-22T01:04:19;16.40;99.90
16160;DHT22;8185;57.818;15.224;2023-06-22T01:06:52;16.40;99.90
16160;DHT22;8185;57.818;15.224;2023-06-22T01:09:26;16.40;99.90
16160;DHT22;8185;57.818;15.224;2023-06-22T01:11:59;16.30;99.90
16160;DHT22;8185;57.818;15.224;2023-06-22T01:14:31;16.30;99.90
16160;DHT22;8185;57.818;15.224;2023-06-22T01:17:01;16.30;99.90
16160;DHT22;8185;57.818;15.224;2023-06-22T01:19:35;16.20;99.90
16160;DHT22;8185;57.818;15.224;2023-06-22T01:22:07;16.20;99.90
16160;DHT22;8185;57.818;15.224;2023-06-22T01:24:48;16.20;99.90
16160;DHT22;8185;57.818;15.224;2023-06-22T01:27:31;16.20;99.90
16160;DHT22;8185;57.818;15.224;2023-06-22T01:30:02;16.20;99.90
16160;DHT22;8185;57.818;15.224;2023-06-22T01:32:32;16.20;99.90
16160;DHT22;8185;57.818;15.224;2023-06-22T01:35:01;16.10;99.90
16160;DHT22;8185;57.818;15.224;2023-06-22T01:37:30;16.20;99.90
16160;DHT22;8185;57.818;15.224;2023-06-22T01:39:59;16.20;99.90
16160;DHT22;8185;57.818;15.224;2023-06-22T01:42:27;16.20;99.90
16160;DHT22;8185;57.818;15.224;2023-06-22T01:44:55;16.20;99.90
16160;DHT22;8185;57.818;15.224;2023-06-22T01:47:24;16.20;99.90
16160;DHT22;8185;57.818;15.224;2023-06-22T01:49:55;16.20;99.90
16160;DHT22;8185;57.818;15.224;2023-06-22T01:52:22;16.20;99.90
16160;DHT22;8185;57.818;15.224;2023-06-22T01:54:49;16.10;99.90
16160;DHT22;8185;57.818;15.224;2023-06-22T01:57:17;16.10;99.90
16160;DHT22;8185;57.818;15.224;2023-06-22T01:59:49;15.40;99.90
16160;DHT22;8185;57.818;15.224;2023-06-22T02:02:20;16.10;99.90
16160;DHT22;8185;57.818;15.224;2023-06-22T02:04:57;16.10;99.90
16160;DHT22;8185;57.818;15.224;2023-06-22T02:07:29;16.10;99.90
16160;DHT22;8185;57.818;15.224;2023-06-22T02:10:00;16.10;99.90
16160;DHT22;8185;57.818;15.224;2023-06-22T02:12:30;16.20;99.90
16160;DHT22;8185;57.818;15.224;2023-06-22T02:14:58;16.10;99.90
16160;DHT22;8185;57.818;15.224;2023-06-22T02:17:27;16.10;99.90
16160;DHT22;8185;57.818;15.224;2023-06-22T02:19:56;16.10;99.90
16160;DHT22;8185;57.818;15.224;2023-06-22T02:22:23;16.10;99.90
16160;DHT22;8185;57.818;15.224;2023-06-22T02:24:50;16.10;99.90
16160;DHT22;8185;57.818;15.224;2023-06-22T02:27:18;16.10;99.90
16160;DHT22;8185;57.818;15.224;2023-06-22T02:29:46;16.10;99.90
16160;DHT22;8185;57.818;15.224;2023-06-22T02:32:13;16.10;99.90
16160;DHT22;8185;57.818;15.224;2023-06-22T02:34:43;16.10;99.90
16160;DHT22;8185;57.818;15.224;2023-06-22T02:37:15;16.10;99.90
16160;DHT22;8185;57.818;15.224;2023-06-22T02:39:42;16.10;99.90
16160;DHT22;8185;57.818;15.224;2023-06-22T02:42:09;16.10;99.90
16160;DHT22;8185;57.818;15.224;2023-06-22T02:44:37;16.00;99.90
16160;DHT22;8185;57.818;15.224;2023-06-22T02:47:05;16.00;99.90
16160;DHT22;8185;57.818;15.224;2023-06-22T02:49:32;16.00;99.90
16160;DHT22;8185;57.818;15.224;2023-06-22T02:51:59;16.00;99.90
16160;DHT22;8185;57.818;15.224;2023-06-22T02:54:28;16.00;99.90
16160;DHT22;8185;57.818;15.224;2023-06-22T02:56:55;16.00;99.90
16160;DHT22;8185;57.818;15.224;2023-06-22T02:59:22;16.00;99.90
16160;DHT22;8185;57.818;15.224;2023-06-22T03:01:50;16.00;99.90
16160;DHT22;8185;57.818;15.224;2023-06-22T03:04:18;16.00;99.90
16160;DHT22;8185;57.818;15.224;2023-06-22T03:06:45;16.00;99.90
16160;DHT22;8185;57.818;15.224;2023-06-22T03:09:16;16.00;99.90
16160;DHT22;8185;57.818;15.224;2023-06-22T03:11:45;16.00;99.90
16160;DHT22;8185;57.818;15.224;2023-06-22T03:14:12;16.00;99.90
16160;DHT22;8185;57.818;15.224;2023-06-22T03:16:39;15.90;99.90
16160;DHT22;8185;57.818;15.224;2023-06-22T03:19:07;15.90;99.90
16160;DHT22;8185;57.818;15.224;2023-06-22T03:21:34;15.90;99.90
16160;DHT22;8185;57.818;15.224;2023-06-22T03:24:03;15.90;99.90
16160;DHT22;8185;57.818;15.224;2023-06-22T03:26:30;15.90;99.90
16160;DHT22;8185;57.818;15.224;2023-06-22T03:28:59;15.90;99.90
16160;DHT22;8185;57.818;15.224;2023-06-22T03:31:26;15.90;99.90
16160;DHT22;8185;57.818;15.224;2023-06-22T03:33:54;15.90;99.90
16160;DHT22;8185;57.818;15.224;2023-06-22T03:36:21;15.90;99.90
16160;DHT22;8185;57.818;15.224;2023-06-22T03:38:49;15.80;99.90
16160;DHT22;8185;57.818;15.224;2023-06-22T03:41:17;15.90;99.90
16160;DHT22;8185;57.818;15.224;2023-06-22T03:43:44;15.90;99.90
16160;DHT22;8185;57.818;15.224;2023-06-22T03:46:12;15.90;99.90
16160;DHT22;8185;57.818;15.224;2023-06-22T03:48:40;15.90;99.90
16160;DHT22;8185;57.818;15.224;2023-06-22T03:51:07;15.90;99.90
16160;DHT22;8185;57.818;15.224;2023-06-22T03:53:34;15.90;99.90
16160;DHT22;8185;57.818;15.224;2023-06-22T03:56:01;15.90;99.90
16160;DHT22;8185;57.818;15.224;2023-06-22T03:58:28;16.00;99.90
16160;DHT22;8185;57.818;15.224;2023-06-22T04:00:58;16.00;99.90
16160;DHT22;8185;57.818;15.224;2023-06-22T04:03:28;15.90;99.90
16160;DHT22;8185;57.818;15.224;2023-06-22T04:05:55;16.00;99.90
16160;DHT22;8185;57.818;15.224;2023-06-22T04:08:22;15.90;99.90
16160;DHT22;8185;57.818;15.224;2023-06-22T04:10:49;16.00;99.90
16160;DHT22;8185;57.818;15.224;2023-06-22T04:13:16;16.00;99.90
16160;DHT22;8185;57.818;15.224;2023-06-22T04:15:44;16.00;99.90
16160;DHT22;8185;57.818;15.224;2023-06-22T04:18:11;16.00;99.90
16160;DHT22;8185;57.818;15.224;2023-06-22T04:20:40;16.10;99.90
16160;DHT22;8185;57.818;15.224;2023-06-22T04:23:07;16.10;99.90
16160;DHT22;8185;57.818;15.224;2023-06-22T04:25:34;16.00;99.90
16160;DHT22;8185;57.818;15.224;2023-06-22T04:28:02;16.00;99.90
16160;DHT22;8185;57.818;15.224;2023-06-22T04:30:30;15.90;99.90
16160;DHT22;8185;57.818;15.224;2023-06-22T04:32:57;15.90;99.90
16160;DHT22;8185;57.818;15.224;2023-06-22T04:35:25;16.00;99.90
16160;DHT22;8185;57.818;15.224;2023-06-22T04:37:53;16.10;99.90
16160;DHT22;8185;57.818;15.224;2023-06-22T04:40:22;16.10;99.90
16160;DHT22;8185;57.818;15.224;2023-06-22T04:42:49;16.20;99.90
16160;DHT22;8185;57.818;15.224;2023-06-22T04:45:20;16.20;99.90
16160;DHT22;8185;57.818;15.224;2023-06-22T04:47:47;16.20;99.90
16160;DHT22;8185;57.818;15.224;2023-06-22T04:50:15;16.10;99.90
16160;DHT22;8185;57.818;15.224;2023-06-22T04:52:43;15.90;99.90
16160;DHT22;8185;57.818;15.224;2023-06-22T04:55:12;15.80;99.90
16160;DHT22;8185;57.818;15.224;2023-06-22T04:57:44;15.90;99.90
16160;DHT22;8185;57.818;15.224;2023-06-22T05:00:15;15.90;99.90
16160;DHT22;8185;57.818;15.224;2023-06-22T05:02:44;16.00;99.90
16160;DHT22;8185;57.818;15.224;2023-06-22T05:05:12;16.20;99.90
16160;DHT22;8185;57.818;15.224;2023-06-22T05:07:41;16.20;99.90
16160;DHT22;8185;57.818;15.224;2023-06-22T05:10:11;16.40;99.90
16160;DHT22;8185;57.818;15.224;2023-06-22T05:12:40;16.30;99.90
16160;DHT22;8185;57.818;15.224;2023-06-22T05:15:08;16.40;99.90
16160;DHT22;8185;57.818;15.224;2023-06-22T05:17:36;16.40;99.90
16160;DHT22;8185;57.818;15.224;2023-06-22T05:20:09;16.30;99.90
16160;DHT22;8185;57.818;15.224;2023-06-22T05:22:37;16.20;99.90
16160;DHT22;8185;57.818;15.224;2023-06-22T05:25:07;16.10;99.90
16160;DHT22;8185;57.818;15.224;2023-06-22T05:27:36;16.10;99.90
16160;DHT22;8185;57.818;15.224;2023-06-22T05:30:06;16.10;99.90
16160;DHT22;8185;57.818;15.224;2023-06-22T05:32:33;16.30;99.90
16160;DHT22;8185;57.818;15.224;2023-06-22T05:35:01;16.40;99.90
16160;DHT22;8185;57.818;15.224;2023-06-22T05:37:29;16.60;99.90
16160;DHT22;8185;57.818;15.224;2023-06-22T05:39:56;16.50;99.90
16160;DHT22;8185;57.818;15.224;2023-06-22T05:42:24;16.50;99.90
16160;DHT22;8185;57.818;15.224;2023-06-22T05:44:53;16.60;99.90
16160;DHT22;8185;57.818;15.224;2023-06-22T05:47:20;16.70;99.90
16160;DHT22;8185;57.818;15.224;2023-06-22T05:49:48;16.50;99.90
16160;DHT22;8185;57.818;15.224;2023-06-22T05:52:15;16.50;99.90
16160;DHT22;8185;57.818;15.224;2023-06-22T05:54:43;16.40;99.90
16160;DHT22;8185;57.818;15.224;2023-06-22T05:57:11;16.60;99.90
16160;DHT22;8185;57.818;15.224;2023-06-22T05:59:38;16.60;99.90
16160;DHT22;8185;57.818;15.224;2023-06-22T06:02:07;16.70;99.90
16160;DHT22;8185;57.818;15.224;2023-06-22T06:04:34;16.80;99.90
16160;DHT22;8185;57.818;15.224;2023-06-22T06:07:01;16.90;99.90
16160;DHT22;8185;57.818;15.224;2023-06-22T06:09:28;17.10;99.90
16160;DHT22;8185;57.818;15.224;2023-06-22T06:11:56;17.20;99.90
16160;DHT22;8185;57.818;15.224;2023-06-22T06:14:23;17.00;99.90
16160;DHT22;8185;57.818;15.224;2023-06-22T06:16:50;16.80;99.90
16160;DHT22;8185;57.818;15.224;2023-06-22T06:19:18;17.10;99.90
16160;DHT22;8185;57.818;15.224;2023-06-22T06:21:46;17.10;99.90
16160;DHT22;8185;57.818;15.224;2023-06-22T06:24:13;17.00;99.90
16160;DHT22;8185;57.818;15.224;2023-06-22T06:26:40;17.00;99.90
16160;DHT22;8185;57.818;15.224;2023-06-22T06:29:07;17.30;99.90
16160;DHT22;8185;57.818;15.224;2023-06-22T06:31:34;17.10;99.90
16160;DHT22;8185;57.818;15.224;2023-06-22T06:34:01;17.20;99.90
16160;DHT22;8185;57.818;15.224;2023-06-22T06:36:30;17.20;99.90
16160;DHT22;8185;57.818;15.224;2023-06-22T06:38:57;17.30;99.90
16160;DHT22;8185;57.818;15.224;2023-06-22T06:41:25;17.30;99.90
16160;DHT22;8185;57.818;15.224;2023-06-22T06:43:52;17.30;99.90
16160;DHT22;8185;57.818;15.224;2023-06-22T06:46:19;17.30;99.90
16160;DHT22;8185;57.818;15.224;2023-06-22T06:48:47;17.30;99.90
16160;DHT22;8185;57.818;15.224;2023-06-22T06:51:15;17.40;99.90
16160;DHT22;8185;57.818;15.224;2023-06-22T06:53:43;17.50;99.90
16160;DHT22;8185;57.818;15.224;2023-06-22T06:56:10;17.50;99.90
16160;DHT22;8185;57.818;15.224;2023-06-22T06:58:40;17.50;99.90
16160;DHT22;8185;57.818;15.224;2023-06-22T07:01:07;17.60;99.90
16160;DHT22;8185;57.818;15.224;2023-06-22T07:03:35;17.60;99.90
16160;DHT22;8185;57.818;15.224;2023-06-22T07:06:02;17.60;99.90
16160;DHT22;8185;57.818;15.224;2023-06-22T07:08:29;17.70;99.90
16160;DHT22;8185;57.818;15.224;2023-06-22T07:10:58;17.50;99.90
16160;DHT22;8185;57.818;15.224;2023-06-22T07:13:26;17.60;99.90
16160;DHT22;8185;57.818;15.224;2023-06-22T07:15:53;17.60;99.90
16160;DHT22;8185;57.818;15.224;2023-06-22T07:18:20;17.60;99.90
16160;DHT22;8185;57.818;15.224;2023-06-22T07:20:48;17.90;99.90
16160;DHT22;8185;57.818;15.224;2023-06-22T07:23:15;18.00;99.90
16160;DHT22;8185;57.818;15.224;2023-06-22T07:25:42;18.20;99.90
16160;DHT22;8185;57.818;15.224;2023-06-22T07:28:11;18.20;99.90
16160;DHT22;8185;57.818;15.224;2023-06-22T07:30:38;18.00;99.90
16160;DHT22;8185;57.818;15.224;2023-06-22T07:33:05;18.10;99.90
16160;DHT22;8185;57.818;15.224;2023-06-22T07:35:34;18.10;99.90
16160;DHT22;8185;57.818;15.224;2023-06-22T07:38:01;18.20;99.90
16160;DHT22;8185;57.818;15.224;2023-06-22T07:40:29;18.20;99.90
16160;DHT22;8185;57.818;15.224;2023-06-22T07:42:56;18.50;99.90
16160;DHT22;8185;57.818;15.224;2023-06-22T07:45:25;18.60;99.90
16160;DHT22;8185;57.818;15.224;2023-06-22T07:47:52;18.70;99.90
16160;DHT22;8185;57.818;15.224;2023-06-22T07:50:19;18.70;99.90
16160;DHT22;8185;57.818;15.224;2023-06-22T07:52:46;18.80;99.90
16160;DHT22;8185;57.818;15.224;2023-06-22T07:55:14;18.70;99.90
16160;DHT22;8185;57.818;15.224;2023-06-22T07:57:41;18.80;99.90
16160;DHT22;8185;57.818;15.224;2023-06-22T08:00:09;18.70;99.90
16160;DHT22;8185;57.818;15.224;2023-06-22T08:02:40;18.80;99.90
16160;DHT22;8185;57.818;15.224;2023-06-22T08:05:08;18.90;99.90
16160;DHT22;8185;57.818;15.224;2023-06-22T08:07:35;18.90;99.90
16160;DHT22;8185;57.818;15.224;2023-06-22T08:10:04;19.00;99.90
16160;DHT22;8185;57.818;15.224;2023-06-22T08:12:31;19.00;99.90
16160;DHT22;8185;57.818;15.224;2023-06-22T08:14:59;19.20;99.90
16160;DHT22;8185;57.818;15.224;2023-06-22T08:17:26;19.20;99.90
16160;DHT22;8185;57.818;15.224;2023-06-22T08:19:55;19.40;99.90
16160;DHT22;8185;57.818;15.224;2023-06-22T08:22:22;19.40;99.90
16160;DHT22;8185;57.818;15.224;2023-06-22T08:24:49;19.30;99.90
16160;DHT22;8185;57.818;15.224;2023-06-22T08:27:17;19.40;99.90
16160;DHT22;8185;57.818;15.224;2023-06-22T08:29:47;19.60;99.90
16160;DHT22;8185;57.818;15.224;2023-06-22T08:32:15;19.70;99.90
16160;DHT22;8185;57.818;15.224;2023-06-22T08:34:42;19.90;99.90
16160;DHT22;8185;57.818;15.224;2023-06-22T08:37:11;20.00;99.90
16160;DHT22;8185;57.818;15.224;2023-06-22T08:39:38;19.80;99.90
16160;DHT22;8185;57.818;15.224;2023-06-22T08:42:06;19.80;99.90
16160;DHT22;8185;57.818;15.224;2023-06-22T08:44:33;19.90;99.90
16160;DHT22;8185;57.818;15.224;2023-06-22T08:47:00;19.90;99.90
16160;DHT22;8185;57.818;15.224;2023-06-22T08:49:27;20.20;99.90
16160;DHT22;8185;57.818;15.224;2023-06-22T08:51:55;19.90;99.90
16160;DHT22;8185;57.818;15.224;2023-06-22T08:54:24;20.30;99.90
16160;DHT22;8185;57.818;15.224;2023-06-22T08:56:51;20.20;99.90
16160;DHT22;8185;57.818;15.224;2023-06-22T08:59:18;20.30;99.90
16160;DHT22;8185;57.818;15.224;2023-06-22T09:01:45;20.30;99.90
16160;DHT22;8185;57.818;15.224;2023-06-22T09:04:14;20.40;99.90
16160;DHT22;8185;57.818;15.224;2023-06-22T09:06:42;20.30;99.90
16160;DHT22;8185;57.818;15.224;2023-06-22T09:09:12;20.60;99.90
16160;DHT22;8185;57.818;15.224;2023-06-22T09:11:41;20.60;99.90
16160;DHT22;8185;57.818;15.224;2023-06-22T09:14:08;20.70;99.90
16160;DHT22;8185;57.818;15.224;2023-06-22T09:16:35;20.60;99.90
16160;DHT22;8185;57.818;15.224;2023-06-22T09:19:03;20.90;99.90
16160;DHT22;8185;57.818;15.224;2023-06-22T09:21:30;20.70;99.90
16160;DHT22;8185;57.818;15.224;2023-06-22T09:23:57;20.70;99.90
16160;DHT22;8185;57.818;15.224;2023-06-22T09:26:24;20.60;99.90
16160;DHT22;8185;57.818;15.224;2023-06-22T09:28:53;20.60;99.90
16160;DHT22;8185;57.818;15.224;2023-06-22T09:31:20;20.70;99.90
16160;DHT22;8185;57.818;15.224;2023-06-22T09:33:52;20.80;99.90
16160;DHT22;8185;57.818;15.224;2023-06-22T09:36:20;21.20;99.90
16160;DHT22;8185;57.818;15.224;2023-06-22T09:38:47;21.60;99.90
16160;DHT22;8185;57.818;15.224;2023-06-22T09:41:14;21.70;99.90
16160;DHT22;8185;57.818;15.224;2023-06-22T09:43:42;21.50;99.90
16160;DHT22;8185;57.818;15.224;2023-06-22T09:46:10;21.50;99.90
16160;DHT22;8185;57.818;15.224;2023-06-22T09:48:37;21.50;99.90
16160;DHT22;8185;57.818;15.224;2023-06-22T09:51:04;21.40;99.90
16160;DHT22;8185;57.818;15.224;2023-06-22T09:53:32;21.30;99.90
16160;DHT22;8185;57.818;15.224;2023-06-22T09:56:00;21.20;99.90
16160;DHT22;8185;57.818;15.224;2023-06-22T09:58:28;21.30;99.90
16160;DHT22;8185;57.818;15.224;2023-06-22T10:00:55;21.50;99.90
16160;DHT22;8185;57.818;15.224;2023-06-22T10:03:24;21.50;99.90
16160;DHT22;8185;57.818;15.224;2023-06-22T10:05:51;21.80;99.90
16160;DHT22;8185;57.818;15.224;2023-06-22T10:08:18;21.90;99.90
16160;DHT22;8185;57.818;15.224;2023-06-22T10:10:46;21.90;99.90
16160;DHT22;8185;57.818;15.224;2023-06-22T10:13:13;21.80;99.90
16160;DHT22;8185;57.818;15.224;2023-06-22T10:15:41;21.70;99.90
16160;DHT22;8185;57.818;15.224;2023-06-22T10:18:08;21.70;99.90
16160;DHT22;8185;57.818;15.224;2023-06-22T10:20:37;21.60;99.90
16160;DHT22;8185;57.818;15.224;2023-06-22T10:23:04;21.80;99.90
16160;DHT22;8185;57.818;15.224;2023-06-22T10:25:31;21.80;99.90
16160;DHT22;8185;57.818;15.224;2023-06-22T10:27:59;22.30;99.90
16160;DHT22;8185;57.818;15.224;2023-06-22T10:30:26;22.30;99.90
16160;DHT22;8185;57.818;15.224;2023-06-22T10:32:54;22.30;99.90
16160;DHT22;8185;57.818;15.224;2023-06-22T10:35:22;22.40;99.90
16160;DHT22;8185;57.818;15.224;2023-06-22T10:37:50;22.30;99.90
16160;DHT22;8185;57.818;15.224;2023-06-22T10:40:17;21.90;99.90
16160;DHT22;8185;57.818;15.224;2023-06-22T10:42:45;22.30;99.90
16160;DHT22;8185;57.818;15.224;2023-06-22T10:45:12;22.30;99.90
16160;DHT22;8185;57.818;15.224;2023-06-22T10:47:39;22.60;99.90
16160;DHT22;8185;57.818;15.224;2023-06-22T10:50:08;23.00;99.90
16160;DHT22;8185;57.818;15.224;2023-06-22T10:52:35;23.00;99.90
16160;DHT22;8185;57.818;15.224;2023-06-22T10:55:04;23.10;99.90
16160;DHT22;8185;57.818;15.224;2023-06-22T10:57:32;23.10;99.90
16160;DHT22;8185;57.818;15.224;2023-06-22T10:59:59;23.30;99.90
16160;DHT22;8185;57.818;15.224;2023-06-22T11:02:26;23.20;99.90
16160;DHT22;8185;57.818;15.224;2023-06-22T11:04:54;23.70;99.90
16160;DHT22;8185;57.818;15.224;2023-06-22T11:07:21;23.80;99.90
16160;DHT22;8185;57.818;15.224;2023-06-22T11:09:49;24.30;99.90
16160;DHT22;8185;57.818;15.224;2023-06-22T11:12:17;25.10;99.90
16160;DHT22;8185;57.818;15.224;2023-06-22T11:14:45;25.40;99.90
16160;DHT22;8185;57.818;15.224;2023-06-22T11:17:12;25.00;99.90
16160;DHT22;8185;57.818;15.224;2023-06-22T11:19:39;24.80;99.90
16160;DHT22;8185;57.818;15.224;2023-06-22T11:22:07;25.10;99.90
16160;DHT22;8185;57.818;15.224;2023-06-22T11:24:34;25.30;99.90
16160;DHT22;8185;57.818;15.224;2023-06-22T11:27:01;25.40;99.90
16160;DHT22;8185;57.818;15.224;2023-06-22T11:29:30;25.00;99.90
16160;DHT22;8185;57.818;15.224;2023-06-22T11:31:57;24.60;99.90
16160;DHT22;8185;57.818;15.224;2023-06-22T11:34:24;23.80;99.90
16160;DHT22;8185;57.818;15.224;2023-06-22T11:36:51;24.40;99.90
16160;DHT22;8185;57.818;15.224;2023-06-22T11:39:19;24.70;99.90
16160;DHT22;8185;57.818;15.224;2023-06-22T11:41:46;24.60;99.90
16160;DHT22;8185;57.818;15.224;2023-06-22T11:44:13;24.70;99.90
16160;DHT22;8185;57.818;15.224;2023-06-22T11:46:42;24.70;99.90
16160;DHT22;8185;57.818;15.224;2023-06-22T11:49:09;24.90;99.90
16160;DHT22;8185;57.818;15.224;2023-06-22T11:51:36;25.20;99.90
16160;DHT22;8185;57.818;15.224;2023-06-22T11:54:03;24.90;99.90
16160;DHT22;8185;57.818;15.224;2023-06-22T11:56:30;25.50;99.90
16160;DHT22;8185;57.818;15.224;2023-06-22T11:58:58;25.70;99.90
16160;DHT22;8185;57.818;15.224;2023-06-22T12:01:25;26.20;99.90
16160;DHT22;8185;57.818;15.224;2023-06-22T12:03:53;25.60;99.90
16160;DHT22;8185;57.818;15.224;2023-06-22T12:06:21;25.70;99.90
16160;DHT22;8185;57.818;15.224;2023-06-22T12:08:48;26.00;99.90
16160;DHT22;8185;57.818;15.224;2023-06-22T12:11:15;25.90;99.90
16160;DHT22;8185;57.818;15.224;2023-06-22T12:13:42;26.50;99.90
16160;DHT22;8185;57.818;15.224;2023-06-22T12:16:10;26.10;99.90
16160;DHT22;8185;57.818;15.224;2023-06-22T12:18:37;25.50;99.90
16160;DHT22;8185;57.818;15.224;2023-06-22T12:21:06;25.70;99.90
16160;DHT22;8185;57.818;15.224;2023-06-22T12:23:33;25.80;99.90
16160;DHT22;8185;57.818;15.224;2023-06-22T12:26:00;24.60;99.90
16160;DHT22;8185;57.818;15.224;2023-06-22T12:28:40;24.50;99.90
16160;DHT22;8185;57.818;15.224;2023-06-22T12:31:08;24.20;99.90
16160;DHT22;8185;57.818;15.224;2023-06-22T12:33:35;24.00;99.90
16160;DHT22;8185;57.818;15.224;2023-06-22T12:36:03;24.40;99.90
16160;DHT22;8185;57.818;15.224;2023-06-22T12:38:32;25.40;99.90
16160;DHT22;8185;57.818;15.224;2023-06-22T12:40:59;25.40;99.90
16160;DHT22;8185;57.818;15.224;2023-06-22T12:43:26;26.50;99.90
16160;DHT22;8185;57.818;15.224;2023-06-22T12:45:53;26.40;99.90
16160;DHT22;8185;57.818;15.224;2023-06-22T12:48:21;26.20;99.90
16160;DHT22;8185;57.818;15.224;2023-06-22T12:50:48;26.00;99.90
16160;DHT22;8185;57.818;15.224;2023-06-22T12:53:16;25.40;99.90
16160;DHT22;8185;57.818;15.224;2023-06-22T12:55:44;26.20;99.90
16160;DHT22;8185;57.818;15.224;2023-06-22T12:58:11;27.10;99.90
16160;DHT22;8185;57.818;15.224;2023-06-22T13:00:39;26.10;99.90
16160;DHT22;8185;57.818;15.224;2023-06-22T13:03:06;25.20;99.90
16160;DHT22;8185;57.818;15.224;2023-06-22T13:05:33;26.20;99.90
16160;DHT22;8185;57.818;15.224;2023-06-22T13:08:02;25.70;99.90
16160;DHT22;8185;57.818;15.224;2023-06-22T13:10:29;25.40;99.90
16160;DHT22;8185;57.818;15.224;2023-06-22T13:12:58;26.00;99.90
16160;DHT22;8185;57.818;15.224;2023-06-22T13:15:27;26.40;99.90
16160;DHT22;8185;57.818;15.224;2023-06-22T13:17:54;26.40;99.90
16160;DHT22;8185;57.818;15.224;2023-06-22T13:20:22;25.30;99.90
16160;DHT22;8185;57.818;15.224;2023-06-22T13:22:49;24.20;99.90
16160;DHT22;8185;57.818;15.224;2023-06-22T13:25:16;23.60;99.90
16160;DHT22;8185;57.818;15.224;2023-06-22T13:27:45;23.00;99.90
16160;DHT22;8185;57.818;15.224;2023-06-22T13:30:14;23.00;99.90
16160;DHT22;8185;57.818;15.224;2023-06-22T13:32:42;23.40;99.90
16160;DHT22;8185;57.818;15.224;2023-06-22T13:35:09;24.80;99.90
16160;DHT22;8185;57.818;15.224;2023-06-22T13:37:36;25.70;99.90
16160;DHT22;8185;57.818;15.224;2023-06-22T13:40:04;27.20;99.90
16160;DHT22;8185;57.818;15.224;2023-06-22T13:42:32;26.70;99.90
16160;DHT22;8185;57.818;15.224;2023-06-22T13:44:59;26.90;99.90
16160;DHT22;8185;57.818;15.224;2023-06-22T13:47:29;26.50;99.90
16160;DHT22;8185;57.818;15.224;2023-06-22T13:49:56;25.40;99.90
16160;DHT22;8185;57.818;15.224;2023-06-22T13:52:24;26.20;99.90
16160;DHT22;8185;57.818;15.224;2023-06-22T13:54:52;25.20;99.90
16160;DHT22;8185;57.818;15.224;2023-06-22T13:57:19;25.10;99.90
16160;DHT22;8185;57.818;15.224;2023-06-22T13:59:46;24.90;99.90
16160;DHT22;8185;57.818;15.224;2023-06-22T14:02:13;26.10;99.90
16160;DHT22;8185;57.818;15.224;2023-06-22T14:04:42;26.30;99.90
16160;DHT22;8185;57.818;15.224;2023-06-22T14:07:09;26.60;99.90
16160;DHT22;8185;57.818;15.224;2023-06-22T14:09:36;26.40;99.90
16160;DHT22;8185;57.818;15.224;2023-06-22T14:12:04;27.10;99.90
16160;DHT22;8185;57.818;15.224;2023-06-22T14:14:32;25.30;99.90
16160;DHT22;8185;57.818;15.224;2023-06-22T14:16:59;25.00;99.90
16160;DHT22;8185;57.818;15.224;2023-06-22T14:19:27;24.60;99.90
16160;DHT22;8185;57.818;15.224;2023-06-22T14:21:55;26.00;99.90
16160;DHT22;8185;57.818;15.224;2023-06-22T14:24:23;26.90;99.90
16160;DHT22;8185;57.818;15.224;2023-06-22T14:26:50;26.50;99.90
16160;DHT22;8185;57.818;15.224;2023-06-22T14:29:18;26.90;99.90
16160;DHT22;8185;57.818;15.224;2023-06-22T14:31:45;26.20;99.90
16160;DHT22;8185;57.818;15.224;2023-06-22T14:34:13;25.50;99.90
16160;DHT22;8185;57.818;15.224;2023-06-22T14:36:40;25.00;99.90
16160;DHT22;8185;57.818;15.224;2023-06-22T14:39:09;27.20;99.90
16160;DHT22;8185;57.818;15.224;2023-06-22T14:41:36;27.30;99.90
16160;DHT22;8185;57.818;15.224;2023-06-22T14:44:04;28.30;99.90
16160;DHT22;8185;57.818;15.224;2023-06-22T14:46:31;26.40;99.90
16160;DHT22;8185;57.818;15.224;2023-06-22T14:48:58;25.20;99.90
16160;DHT22;8185;57.818;15.224;2023-06-22T14:51:25;26.90;99.90
16160;DHT22;8185;57.818;15.224;2023-06-22T14:53:53;27.10;99.90
16160;DHT22;8185;57.818;15.224;2023-06-22T14:56:21;25.20;99.90
16160;DHT22;8185;57.818;15.224;2023-06-22T14:58:49;24.80;99.90
16160;DHT22;8185;57.818;15.224;2023-06-22T15:01:17;24.40;99.90
16160;DHT22;8185;57.818;15.224;2023-06-22T15:03:44;24.10;99.90
16160;DHT22;8185;57.818;15.224;2023-06-22T15:06:11;25.80;99.90
16160;DHT22;8185;57.818;15.224;2023-06-22T15:08:39;26.40;99.90
16160;DHT22;8185;57.818;15.224;2023-06-22T15:11:08;27.10;99.90
16160;DHT22;8185;57.818;15.224;2023-06-22T15:13:39;26.20;99.90
16160;DHT22;8185;57.818;15.224;2023-06-22T15:16:06;27.40;99.90
16160;DHT22;8185;57.818;15.224;2023-06-22T15:18:34;26.70;99.90
16160;DHT22;8185;57.818;15.224;2023-06-22T15:21:02;24.90;99.90
16160;DHT22;8185;57.818;15.224;2023-06-22T15:23:29;23.90;99.90
16160;DHT22;8185;57.818;15.224;2023-06-22T15:25:57;25.00;99.90
16160;DHT22;8185;57.818;15.224;2023-06-22T15:28:25;24.60;99.90
16160;DHT22;8185;57.818;15.224;2023-06-22T15:30:53;23.90;99.90
16160;DHT22;8185;57.818;15.224;2023-06-22T15:33:21;23.80;99.90